Disclaimer

Please do not use the information listed here in-flight or in-navigation, as they are not provided to us by the airports but are provided by volunteers, so they might be outdated.

Search


Regions


Airport information page

Radio informations:
Tower (TWR) - 125.6 MHz

Airport informations:
Latitude: 50° 46' 48.00" N
Longitude: 001° 50' 33.00" W
Elevation: 38 feet - 12 meters
Operating hours: Remarks
Operating agency: Civil government, landing fees and diplomatic clearance may be required
Timezone: UTC 0(+1DT) - Last Sunday in March to last Sunday in October
Fuel: Jet A1, without icing nhibitor.

100/130 MIL Spec, low lead, aviation gasoline (BLUE)

Runway information:
08/26 - 7451 x 151 feet< - >2271 x 46 meters

Recent METARs:
EGHH 170720Z 08010KT 040V110 7000 FEW003 BKN009 08/07 Q1024
EGHH 170750Z 07010KT 040V110 9999 FEW003 BKN010 08/07 Q1025
EGHH 170820Z 08010KT 9999 FEW008 BKN011 08/06 Q1025

Airport on the map: